sensor_id;sensor_type;location;lat;lon;timestamp;P1;durP1;ratioP1;P2;durP2;ratioP2
46589;SDS011;32313;48.722;9.362;2023-08-06T00:00:38;10.50;;;9.53;;
46589;SDS011;32313;48.722;9.362;2023-08-06T00:03:03;13.17;;;11.97;;
46589;SDS011;32313;48.722;9.362;2023-08-06T00:05:32;12.77;;;11.57;;
46589;SDS011;32313;48.722;9.362;2023-08-06T00:07:58;13.43;;;12.33;;
46589;SDS011;32313;48.722;9.362;2023-08-06T00:10:23;13.77;;;12.50;;
46589;SDS011;32313;48.722;9.362;2023-08-06T00:12:49;13.93;;;12.60;;
46589;SDS011;32313;48.722;9.362;2023-08-06T00:15:15;14.40;;;13.00;;
46589;SDS011;32313;48.722;9.362;2023-08-06T00:17:40;12.90;;;11.60;;
46589;SDS011;32313;48.722;9.362;2023-08-06T00:20:06;16.17;;;14.30;;
46589;SDS011;32313;48.722;9.362;2023-08-06T00:22:33;12.87;;;11.77;;
46589;SDS011;32313;48.722;9.362;2023-08-06T00:24:59;14.20;;;12.77;;
46589;SDS011;32313;48.722;9.362;2023-08-06T00:27:25;14.43;;;13.00;;
46589;SDS011;32313;48.722;9.362;2023-08-06T00:29:51;15.67;;;14.10;;
46589;SDS011;32313;48.722;9.362;2023-08-06T00:32:17;15.93;;;14.43;;
46589;SDS011;32313;48.722;9.362;2023-08-06T00:34:43;15.40;;;14.00;;
46589;SDS011;32313;48.722;9.362;2023-08-06T00:37:08;15.80;;;14.30;;
46589;SDS011;32313;48.722;9.362;2023-08-06T00:39:34;15.77;;;14.17;;
46589;SDS011;32313;48.722;9.362;2023-08-06T00:42:00;17.80;;;16.00;;
46589;SDS011;32313;48.722;9.362;2023-08-06T00:44:25;17.57;;;15.77;;
46589;SDS011;32313;48.722;9.362;2023-08-06T00:46:51;19.10;;;17.20;;
46589;SDS011;32313;48.722;9.362;2023-08-06T00:49:17;19.63;;;16.70;;
46589;SDS011;32313;48.722;9.362;2023-08-06T00:51:43;18.53;;;16.83;;
46589;SDS011;32313;48.722;9.362;2023-08-06T00:54:09;18.20;;;16.40;;
46589;SDS011;32313;48.722;9.362;2023-08-06T00:56:35;18.37;;;16.60;;
46589;SDS011;32313;48.722;9.362;2023-08-06T00:59:02;19.90;;;16.20;;
46589;SDS011;32313;48.722;9.362;2023-08-06T01:01:30;17.70;;;15.93;;
46589;SDS011;32313;48.722;9.362;2023-08-06T01:03:55;20.70;;;18.67;;
46589;SDS011;32313;48.722;9.362;2023-08-06T01:06:24;22.20;;;19.83;;
46589;SDS011;32313;48.722;9.362;2023-08-06T01:09:07;24.63;;;22.00;;
46589;SDS011;32313;48.722;9.362;2023-08-06T01:12:14;22.27;;;19.93;;
46589;SDS011;32313;48.722;9.362;2023-08-06T01:15:08;20.57;;;17.83;;
46589;SDS011;32313;48.722;9.362;2023-08-06T01:17:42;24.60;;;20.57;;
46589;SDS011;32313;48.722;9.362;2023-08-06T01:20:10;21.97;;;19.77;;
46589;SDS011;32313;48.722;9.362;2023-08-06T01:22:35;24.90;;;22.30;;
46589;SDS011;32313;48.722;9.362;2023-08-06T01:25:01;22.37;;;20.27;;
46589;SDS011;32313;48.722;9.362;2023-08-06T01:27:32;19.20;;;17.30;;
46589;SDS011;32313;48.722;9.362;2023-08-06T01:30:06;19.47;;;17.47;;
46589;SDS011;32313;48.722;9.362;2023-08-06T01:32:45;17.10;;;15.53;;
46589;SDS011;32313;48.722;9.362;2023-08-06T01:35:19;20.23;;;18.13;;
46589;SDS011;32313;48.722;9.362;2023-08-06T01:37:46;19.63;;;17.63;;
46589;SDS011;32313;48.722;9.362;2023-08-06T01:40:13;23.27;;;20.30;;
46589;SDS011;32313;48.722;9.362;2023-08-06T01:42:39;21.70;;;18.03;;
46589;SDS011;32313;48.722;9.362;2023-08-06T01:45:07;18.13;;;16.23;;
46589;SDS011;32313;48.722;9.362;2023-08-06T01:47:33;17.73;;;15.93;;
46589;SDS011;32313;48.722;9.362;2023-08-06T01:50:06;16.80;;;15.07;;
46589;SDS011;32313;48.722;9.362;2023-08-06T01:52:31;17.50;;;15.70;;
46589;SDS011;32313;48.722;9.362;2023-08-06T01:54:57;16.93;;;15.23;;
46589;SDS011;32313;48.722;9.362;2023-08-06T01:57:23;18.53;;;16.67;;
46589;SDS011;32313;48.722;9.362;2023-08-06T01:59:49;17.53;;;15.63;;
46589;SDS011;32313;48.722;9.362;2023-08-06T02:02:14;19.03;;;17.17;;
46589;SDS011;32313;48.722;9.362;2023-08-06T02:04:40;18.13;;;16.23;;
46589;SDS011;32313;48.722;9.362;2023-08-06T02:07:05;17.23;;;15.43;;
46589;SDS011;32313;48.722;9.362;2023-08-06T02:09:31;17.37;;;15.67;;
46589;SDS011;32313;48.722;9.362;2023-08-06T02:11:57;19.73;;;16.33;;
46589;SDS011;32313;48.722;9.362;2023-08-06T02:14:23;19.20;;;17.13;;
46589;SDS011;32313;48.722;9.362;2023-08-06T02:16:48;21.07;;;18.80;;
46589;SDS011;32313;48.722;9.362;2023-08-06T02:19:15;21.00;;;18.80;;
46589;SDS011;32313;48.722;9.362;2023-08-06T02:21:40;20.67;;;18.47;;
46589;SDS011;32313;48.722;9.362;2023-08-06T02:24:06;18.63;;;16.77;;
46589;SDS011;32313;48.722;9.362;2023-08-06T02:26:32;17.13;;;15.33;;
46589;SDS011;32313;48.722;9.362;2023-08-06T02:28:57;17.53;;;15.70;;
46589;SDS011;32313;48.722;9.362;2023-08-06T02:31:23;15.20;;;13.57;;
46589;SDS011;32313;48.722;9.362;2023-08-06T02:33:48;13.90;;;12.47;;
46589;SDS011;32313;48.722;9.362;2023-08-06T02:36:14;14.57;;;13.17;;
46589;SDS011;32313;48.722;9.362;2023-08-06T02:38:40;14.17;;;12.70;;
46589;SDS011;32313;48.722;9.362;2023-08-06T02:41:05;14.80;;;13.30;;
46589;SDS011;32313;48.722;9.362;2023-08-06T02:43:31;14.50;;;13.10;;
46589;SDS011;32313;48.722;9.362;2023-08-06T02:45:57;15.33;;;13.83;;
46589;SDS011;32313;48.722;9.362;2023-08-06T02:48:24;13.60;;;12.20;;
46589;SDS011;32313;48.722;9.362;2023-08-06T02:50:49;17.77;;;13.40;;
46589;SDS011;32313;48.722;9.362;2023-08-06T02:53:15;16.67;;;14.87;;
46589;SDS011;32313;48.722;9.362;2023-08-06T02:55:46;15.47;;;13.97;;
46589;SDS011;32313;48.722;9.362;2023-08-06T02:58:19;15.13;;;13.37;;
46589;SDS011;32313;48.722;9.362;2023-08-06T03:01:01;14.97;;;13.37;;
46589;SDS011;32313;48.722;9.362;2023-08-06T03:03:39;13.10;;;11.87;;
46589;SDS011;32313;48.722;9.362;2023-08-06T03:06:06;14.03;;;12.17;;
46589;SDS011;32313;48.722;9.362;2023-08-06T03:08:42;13.63;;;12.33;;
46589;SDS011;32313;48.722;9.362;2023-08-06T03:11:07;13.07;;;11.80;;
46589;SDS011;32313;48.722;9.362;2023-08-06T03:13:34;13.03;;;11.73;;
46589;SDS011;32313;48.722;9.362;2023-08-06T03:16:00;12.83;;;11.53;;
46589;SDS011;32313;48.722;9.362;2023-08-06T03:18:28;13.20;;;11.83;;
46589;SDS011;32313;48.722;9.362;2023-08-06T03:20:56;14.13;;;12.50;;
46589;SDS011;32313;48.722;9.362;2023-08-06T03:23:24;12.77;;;11.47;;
46589;SDS011;32313;48.722;9.362;2023-08-06T03:25:50;13.20;;;12.03;;
46589;SDS011;32313;48.722;9.362;2023-08-06T03:28:16;14.10;;;12.60;;
46589;SDS011;32313;48.722;9.362;2023-08-06T03:30:42;13.50;;;11.87;;
46589;SDS011;32313;48.722;9.362;2023-08-06T03:33:10;12.43;;;11.23;;
46589;SDS011;32313;48.722;9.362;2023-08-06T03:35:35;13.20;;;11.90;;
46589;SDS011;32313;48.722;9.362;2023-08-06T03:38:01;13.43;;;12.10;;
46589;SDS011;32313;48.722;9.362;2023-08-06T03:40:27;11.90;;;10.77;;
46589;SDS011;32313;48.722;9.362;2023-08-06T03:42:54;13.33;;;11.97;;
46589;SDS011;32313;48.722;9.362;2023-08-06T03:45:20;14.30;;;11.90;;
46589;SDS011;32313;48.722;9.362;2023-08-06T03:47:45;12.50;;;11.20;;
46589;SDS011;32313;48.722;9.362;2023-08-06T03:50:12;11.77;;;10.57;;
46589;SDS011;32313;48.722;9.362;2023-08-06T03:52:38;12.47;;;11.27;;
46589;SDS011;32313;48.722;9.362;2023-08-06T03:55:04;11.93;;;10.27;;
46589;SDS011;32313;48.722;9.362;2023-08-06T03:57:30;11.87;;;10.67;;
46589;SDS011;32313;48.722;9.362;2023-08-06T03:59:56;11.70;;;10.53;;
46589;SDS011;32313;48.722;9.362;2023-08-06T04:02:24;12.40;;;10.33;;
46589;SDS011;32313;48.722;9.362;2023-08-06T04:04:50;10.63;;;9.53;;
46589;SDS011;32313;48.722;9.362;2023-08-06T04:07:18;10.67;;;9.77;;
46589;SDS011;32313;48.722;9.362;2023-08-06T04:12:26;9.97;;;9.07;;
46589;SDS011;32313;48.722;9.362;2023-08-06T04:14:52;8.40;;;7.60;;
46589;SDS011;32313;48.722;9.362;2023-08-06T04:17:20;9.23;;;7.83;;
46589;SDS011;32313;48.722;9.362;2023-08-06T04:19:49;7.47;;;6.77;;
46589;SDS011;32313;48.722;9.362;2023-08-06T04:22:16;9.00;;;7.97;;
46589;SDS011;32313;48.722;9.362;2023-08-06T04:24:43;7.93;;;7.23;;
46589;SDS011;32313;48.722;9.362;2023-08-06T04:27:10;7.03;;;6.33;;
46589;SDS011;32313;48.722;9.362;2023-08-06T04:29:37;9.13;;;7.63;;
46589;SDS011;32313;48.722;9.362;2023-08-06T04:32:05;8.93;;;7.87;;
46589;SDS011;32313;48.722;9.362;2023-08-06T04:34:32;7.60;;;6.90;;
46589;SDS011;32313;48.722;9.362;2023-08-06T04:36:58;8.13;;;7.43;;
46589;SDS011;32313;48.722;9.362;2023-08-06T04:39:25;9.80;;;7.97;;
46589;SDS011;32313;48.722;9.362;2023-08-06T04:41:51;7.93;;;6.83;;
46589;SDS011;32313;48.722;9.362;2023-08-06T04:44:17;7.07;;;6.20;;
46589;SDS011;32313;48.722;9.362;2023-08-06T04:46:43;6.53;;;5.93;;
46589;SDS011;32313;48.722;9.362;2023-08-06T04:49:08;6.83;;;5.53;;
46589;SDS011;32313;48.722;9.362;2023-08-06T04:51:34;6.70;;;5.57;;
46589;SDS011;32313;48.722;9.362;2023-08-06T04:54:00;5.87;;;5.33;;
46589;SDS011;32313;48.722;9.362;2023-08-06T04:56:26;6.57;;;5.10;;
46589;SDS011;32313;48.722;9.362;2023-08-06T04:58:52;6.23;;;5.00;;
46589;SDS011;32313;48.722;9.362;2023-08-06T05:01:17;6.63;;;4.80;;
46589;SDS011;32313;48.722;9.362;2023-08-06T05:03:43;4.57;;;4.10;;
46589;SDS011;32313;48.722;9.362;2023-08-06T05:06:09;4.40;;;4.00;;
46589;SDS011;32313;48.722;9.362;2023-08-06T05:08:35;4.83;;;4.27;;
46589;SDS011;32313;48.722;9.362;2023-08-06T05:11:01;4.77;;;4.37;;
46589;SDS011;32313;48.722;9.362;2023-08-06T05:13:27;6.63;;;4.13;;
46589;SDS011;32313;48.722;9.362;2023-08-06T05:15:55;5.07;;;4.10;;
46589;SDS011;32313;48.722;9.362;2023-08-06T05:18:21;3.93;;;3.50;;
46589;SDS011;32313;48.722;9.362;2023-08-06T05:20:47;4.80;;;3.77;;
46589;SDS011;32313;48.722;9.362;2023-08-06T05:23:12;4.00;;;3.70;;
46589;SDS011;32313;48.722;9.362;2023-08-06T05:25:38;4.00;;;3.30;;
46589;SDS011;32313;48.722;9.362;2023-08-06T05:28:04;3.50;;;3.20;;
46589;SDS011;32313;48.722;9.362;2023-08-06T05:30:30;5.13;;;3.10;;
46589;SDS011;32313;48.722;9.362;2023-08-06T05:32:56;3.57;;;3.10;;
46589;SDS011;32313;48.722;9.362;2023-08-06T05:35:22;4.57;;;3.00;;
46589;SDS011;32313;48.722;9.362;2023-08-06T05:37:48;3.77;;;3.10;;
46589;SDS011;32313;48.722;9.362;2023-08-06T05:40:15;3.50;;;2.60;;
46589;SDS011;32313;48.722;9.362;2023-08-06T05:42:41;3.43;;;2.57;;
46589;SDS011;32313;48.722;9.362;2023-08-06T05:45:07;4.23;;;2.70;;
46589;SDS011;32313;48.722;9.362;2023-08-06T05:47:33;4.30;;;2.60;;
46589;SDS011;32313;48.722;9.362;2023-08-06T05:49:59;2.80;;;2.60;;
46589;SDS011;32313;48.722;9.362;2023-08-06T05:52:25;2.73;;;2.40;;
46589;SDS011;32313;48.722;9.362;2023-08-06T05:54:50;3.47;;;2.60;;
46589;SDS011;32313;48.722;9.362;2023-08-06T05:57:16;2.97;;;2.43;;
46589;SDS011;32313;48.722;9.362;2023-08-06T05:59:42;5.83;;;2.53;;
46589;SDS011;32313;48.722;9.362;2023-08-06T06:02:08;2.93;;;2.53;;
46589;SDS011;32313;48.722;9.362;2023-08-06T06:04:34;2.50;;;2.20;;
46589;SDS011;32313;48.722;9.362;2023-08-06T06:07:00;3.03;;;2.37;;
46589;SDS011;32313;48.722;9.362;2023-08-06T06:09:25;4.40;;;2.43;;
46589;SDS011;32313;48.722;9.362;2023-08-06T06:11:51;3.87;;;2.33;;
46589;SDS011;32313;48.722;9.362;2023-08-06T06:14:17;2.97;;;2.20;;
46589;SDS011;32313;48.722;9.362;2023-08-06T06:16:44;2.90;;;2.20;;
46589;SDS011;32313;48.722;9.362;2023-08-06T06:19:10;2.87;;;2.40;;
46589;SDS011;32313;48.722;9.362;2023-08-06T06:21:36;4.90;;;2.20;;
46589;SDS011;32313;48.722;9.362;2023-08-06T06:24:04;4.73;;;2.27;;
46589;SDS011;32313;48.722;9.362;2023-08-06T06:26:30;2.53;;;2.00;;
46589;SDS011;32313;48.722;9.362;2023-08-06T06:28:56;3.70;;;2.30;;
46589;SDS011;32313;48.722;9.362;2023-08-06T06:31:22;2.10;;;1.90;;
46589;SDS011;32313;48.722;9.362;2023-08-06T06:33:47;2.87;;;1.97;;
46589;SDS011;32313;48.722;9.362;2023-08-06T06:36:13;2.10;;;1.90;;
46589;SDS011;32313;48.722;9.362;2023-08-06T06:38:39;2.20;;;2.00;;
46589;SDS011;32313;48.722;9.362;2023-08-06T06:41:05;2.80;;;2.00;;
46589;SDS011;32313;48.722;9.362;2023-08-06T06:43:30;2.90;;;2.00;;
46589;SDS011;32313;48.722;9.362;2023-08-06T06:45:56;3.03;;;2.00;;
46589;SDS011;32313;48.722;9.362;2023-08-06T06:48:23;2.53;;;1.87;;
46589;SDS011;32313;48.722;9.362;2023-08-06T06:50:50;3.37;;;2.10;;
46589;SDS011;32313;48.722;9.362;2023-08-06T06:53:16;2.33;;;2.13;;
46589;SDS011;32313;48.722;9.362;2023-08-06T06:55:42;2.37;;;2.00;;
46589;SDS011;32313;48.722;9.362;2023-08-06T06:58:07;3.47;;;1.80;;
46589;SDS011;32313;48.722;9.362;2023-08-06T07:00:35;2.00;;;1.80;;
46589;SDS011;32313;48.722;9.362;2023-08-06T07:03:01;2.00;;;1.90;;
46589;SDS011;32313;48.722;9.362;2023-08-06T07:05:43;2.77;;;2.00;;
46589;SDS011;32313;48.722;9.362;2023-08-06T07:08:09;1.87;;;1.73;;
46589;SDS011;32313;48.722;9.362;2023-08-06T07:10:35;1.93;;;1.67;;
46589;SDS011;32313;48.722;9.362;2023-08-06T07:13:00;1.80;;;1.70;;
46589;SDS011;32313;48.722;9.362;2023-08-06T07:15:26;1.70;;;1.60;;
46589;SDS011;32313;48.722;9.362;2023-08-06T07:17:52;1.73;;;1.63;;
46589;SDS011;32313;48.722;9.362;2023-08-06T07:20:17;1.93;;;1.83;;
46589;SDS011;32313;48.722;9.362;2023-08-06T07:22:43;4.87;;;1.70;;
46589;SDS011;32313;48.722;9.362;2023-08-06T07:25:10;1.70;;;1.50;;
46589;SDS011;32313;48.722;9.362;2023-08-06T07:27:35;1.60;;;1.50;;
46589;SDS011;32313;48.722;9.362;2023-08-06T07:30:01;2.20;;;1.73;;
46589;SDS011;32313;48.722;9.362;2023-08-06T07:32:27;1.70;;;1.60;;
46589;SDS011;32313;48.722;9.362;2023-08-06T07:34:55;5.43;;;1.50;;
46589;SDS011;32313;48.722;9.362;2023-08-06T07:37:24;1.80;;;1.70;;
46589;SDS011;32313;48.722;9.362;2023-08-06T07:39:50;1.60;;;1.50;;
46589;SDS011;32313;48.722;9.362;2023-08-06T07:42:16;1.40;;;1.40;;
46589;SDS011;32313;48.722;9.362;2023-08-06T07:44:41;1.77;;;1.50;;
46589;SDS011;32313;48.722;9.362;2023-08-06T07:47:07;1.70;;;1.60;;
46589;SDS011;32313;48.722;9.362;2023-08-06T07:49:33;1.67;;;1.57;;
46589;SDS011;32313;48.722;9.362;2023-08-06T07:51:58;1.77;;;1.67;;
46589;SDS011;32313;48.722;9.362;2023-08-06T07:54:24;1.70;;;1.60;;
46589;SDS011;32313;48.722;9.362;2023-08-06T07:56:50;1.50;;;1.43;;
46589;SDS011;32313;48.722;9.362;2023-08-06T07:59:15;1.60;;;1.50;;
46589;SDS011;32313;48.722;9.362;2023-08-06T08:01:41;1.60;;;1.50;;
46589;SDS011;32313;48.722;9.362;2023-08-06T08:04:07;1.40;;;1.40;;
46589;SDS011;32313;48.722;9.362;2023-08-06T08:06:33;1.87;;;1.60;;
46589;SDS011;32313;48.722;9.362;2023-08-06T08:08:59;1.40;;;1.40;;
46589;SDS011;32313;48.722;9.362;2023-08-06T08:11:25;1.40;;;1.30;;
46589;SDS011;32313;48.722;9.362;2023-08-06T08:13:51;1.40;;;1.30;;
46589;SDS011;32313;48.722;9.362;2023-08-06T08:16:16;1.40;;;1.30;;
46589;SDS011;32313;48.722;9.362;2023-08-06T08:18:42;1.53;;;1.30;;
46589;SDS011;32313;48.722;9.362;2023-08-06T08:21:08;1.50;;;1.40;;
46589;SDS011;32313;48.722;9.362;2023-08-06T08:23:33;1.40;;;1.30;;
46589;SDS011;32313;48.722;9.362;2023-08-06T08:25:59;1.70;;;1.20;;
46589;SDS011;32313;48.722;9.362;2023-08-06T08:28:27;1.57;;;1.40;;
46589;SDS011;32313;48.722;9.362;2023-08-06T08:30:53;1.10;;;1.10;;
46589;SDS011;32313;48.722;9.362;2023-08-06T08:33:18;1.57;;;1.30;;
46589;SDS011;32313;48.722;9.362;2023-08-06T08:35:45;1.00;;;1.00;;
46589;SDS011;32313;48.722;9.362;2023-08-06T08:38:12;1.63;;;1.53;;
46589;SDS011;32313;48.722;9.362;2023-08-06T08:40:38;1.37;;;1.27;;
46589;SDS011;32313;48.722;9.362;2023-08-06T08:43:12;1.10;;;1.10;;
46589;SDS011;32313;48.722;9.362;2023-08-06T08:45:39;1.20;;;1.20;;
46589;SDS011;32313;48.722;9.362;2023-08-06T08:48:07;1.20;;;1.10;;
46589;SDS011;32313;48.722;9.362;2023-08-06T08:50:37;1.20;;;1.10;;
46589;SDS011;32313;48.722;9.362;2023-08-06T08:53:03;1.17;;;1.17;;
46589;SDS011;32313;48.722;9.362;2023-08-06T08:55:30;1.10;;;1.10;;
46589;SDS011;32313;48.722;9.362;2023-08-06T08:57:57;1.20;;;1.10;;
46589;SDS011;32313;48.722;9.362;2023-08-06T09:00:23;1.20;;;1.20;;
46589;SDS011;32313;48.722;9.362;2023-08-06T09:02:50;1.30;;;1.20;;
46589;SDS011;32313;48.722;9.362;2023-08-06T09:05:17;1.13;;;1.13;;
46589;SDS011;32313;48.722;9.362;2023-08-06T09:07:47;1.10;;;1.10;;
46589;SDS011;32313;48.722;9.362;2023-08-06T09:10:14;1.10;;;1.10;;
46589;SDS011;32313;48.722;9.362;2023-08-06T09:12:43;2.20;;;1.20;;
46589;SDS011;32313;48.722;9.362;2023-08-06T09:15:10;1.47;;;1.10;;
46589;SDS011;32313;48.722;9.362;2023-08-06T09:17:36;1.10;;;1.10;;
46589;SDS011;32313;48.722;9.362;2023-08-06T09:20:08;1.10;;;1.10;;
46589;SDS011;32313;48.722;9.362;2023-08-06T09:22:38;1.20;;;1.10;;
46589;SDS011;32313;48.722;9.362;2023-08-06T09:25:04;1.00;;;1.00;;
46589;SDS011;32313;48.722;9.362;2023-08-06T09:27:35;1.00;;;1.00;;
46589;SDS011;32313;48.722;9.362;2023-08-06T09:30:02;1.30;;;1.20;;
46589;SDS011;32313;48.722;9.362;2023-08-06T09:32:44;1.00;;;1.00;;
46589;SDS011;32313;48.722;9.362;2023-08-06T09:35:17;1.00;;;1.00;;
46589;SDS011;32313;48.722;9.362;2023-08-06T09:37:44;1.00;;;1.00;;
46589;SDS011;32313;48.722;9.362;2023-08-06T09:40:26;0.93;;;0.93;;
46589;SDS011;32313;48.722;9.362;2023-08-06T09:42:53;0.90;;;0.90;;
46589;SDS011;32313;48.722;9.362;2023-08-06T09:45:20;1.00;;;1.00;;
46589;SDS011;32313;48.722;9.362;2023-08-06T09:47:47;1.00;;;1.00;;
46589;SDS011;32313;48.722;9.362;2023-08-06T09:50:20;1.10;;;1.00;;
46589;SDS011;32313;48.722;9.362;2023-08-06T09:52:46;1.90;;;1.10;;
46589;SDS011;32313;48.722;9.362;2023-08-06T09:55:14;1.00;;;1.00;;
46589;SDS011;32313;48.722;9.362;2023-08-06T09:57:40;0.90;;;0.90;;
46589;SDS011;32313;48.722;9.362;2023-08-06T10:00:08;1.00;;;1.00;;
46589;SDS011;32313;48.722;9.362;2023-08-06T10:02:38;1.20;;;1.10;;
46589;SDS011;32313;48.722;9.362;2023-08-06T10:05:05;1.00;;;1.00;;
46589;SDS011;32313;48.722;9.362;2023-08-06T10:07:31;1.57;;;0.93;;
46589;SDS011;32313;48.722;9.362;2023-08-06T10:09:58;1.00;;;1.00;;
46589;SDS011;32313;48.722;9.362;2023-08-06T10:12:24;1.13;;;0.90;;
46589;SDS011;32313;48.722;9.362;2023-08-06T10:14:53;1.10;;;1.10;;
46589;SDS011;32313;48.722;9.362;2023-08-06T10:17:21;1.00;;;1.00;;
46589;SDS011;32313;48.722;9.362;2023-08-06T10:19:48;1.00;;;1.00;;
46589;SDS011;32313;48.722;9.362;2023-08-06T10:22:16;0.90;;;0.90;;
46589;SDS011;32313;48.722;9.362;2023-08-06T10:24:52;1.10;;;1.10;;
46589;SDS011;32313;48.722;9.362;2023-08-06T10:27:19;1.10;;;1.10;;
46589;SDS011;32313;48.722;9.362;2023-08-06T10:29:47;1.27;;;1.17;;
46589;SDS011;32313;48.722;9.362;2023-08-06T10:32:14;1.30;;;1.20;;
46589;SDS011;32313;48.722;9.362;2023-08-06T10:37:23;1.10;;;1.10;;
46589;SDS011;32313;48.722;9.362;2023-08-06T10:39:59;1.30;;;1.30;;
46589;SDS011;32313;48.722;9.362;2023-08-06T10:42:28;1.20;;;1.20;;
46589;SDS011;32313;48.722;9.362;2023-08-06T10:45:16;1.40;;;1.40;;
46589;SDS011;32313;48.722;9.362;2023-08-06T10:47:42;3.43;;;1.23;;
46589;SDS011;32313;48.722;9.362;2023-08-06T10:50:11;1.30;;;1.20;;
46589;SDS011;32313;48.722;9.362;2023-08-06T10:52:44;1.10;;;1.10;;
46589;SDS011;32313;48.722;9.362;2023-08-06T10:55:11;1.30;;;1.20;;
46589;SDS011;32313;48.722;9.362;2023-08-06T10:57:37;1.40;;;1.30;;
46589;SDS011;32313;48.722;9.362;2023-08-06T11:00:04;1.23;;;1.23;;
46589;SDS011;32313;48.722;9.362;2023-08-06T11:02:34;1.30;;;1.30;;
46589;SDS011;32313;48.722;9.362;2023-08-06T11:05:07;1.27;;;1.17;;
46589;SDS011;32313;48.722;9.362;2023-08-06T11:07:34;2.67;;;1.40;;
46589;SDS011;32313;48.722;9.362;2023-08-06T11:10:07;1.23;;;1.20;;
46589;SDS011;32313;48.722;9.362;2023-08-06T11:12:35;1.30;;;1.27;;
46589;SDS011;32313;48.722;9.362;2023-08-06T11:15:01;1.40;;;1.40;;
46589;SDS011;32313;48.722;9.362;2023-08-06T11:17:28;1.47;;;1.20;;
46589;SDS011;32313;48.722;9.362;2023-08-06T11:19:55;1.20;;;1.20;;
46589;SDS011;32313;48.722;9.362;2023-08-06T11:22:23;1.30;;;1.20;;
46589;SDS011;32313;48.722;9.362;2023-08-06T11:24:49;1.20;;;1.20;;
46589;SDS011;32313;48.722;9.362;2023-08-06T11:27:15;1.70;;;1.30;;
46589;SDS011;32313;48.722;9.362;2023-08-06T11:29:42;2.07;;;1.40;;
46589;SDS011;32313;48.722;9.362;2023-08-06T11:32:09;1.50;;;1.40;;
46589;SDS011;32313;48.722;9.362;2023-08-06T11:34:36;1.40;;;1.40;;
46589;SDS011;32313;48.722;9.362;2023-08-06T11:37:03;1.30;;;1.30;;
46589;SDS011;32313;48.722;9.362;2023-08-06T11:39:32;1.50;;;1.40;;
46589;SDS011;32313;48.722;9.362;2023-08-06T11:41:59;1.60;;;1.50;;
46589;SDS011;32313;48.722;9.362;2023-08-06T11:44:29;1.30;;;1.30;;
46589;SDS011;32313;48.722;9.362;2023-08-06T11:46:58;1.60;;;1.50;;
46589;SDS011;32313;48.722;9.362;2023-08-06T11:49:45;1.63;;;1.53;;
46589;SDS011;32313;48.722;9.362;2023-08-06T11:55:07;1.50;;;1.50;;
46589;SDS011;32313;48.722;9.362;2023-08-06T11:57:44;2.03;;;1.70;;
46589;SDS011;32313;48.722;9.362;2023-08-06T12:00:11;4.10;;;1.70;;
46589;SDS011;32313;48.722;9.362;2023-08-06T12:02:40;2.53;;;1.60;;
46589;SDS011;32313;48.722;9.362;2023-08-06T12:07:39;1.80;;;1.70;;
46589;SDS011;32313;48.722;9.362;2023-08-06T12:10:06;1.77;;;1.67;;
46589;SDS011;32313;48.722;9.362;2023-08-06T12:12:33;1.70;;;1.60;;
46589;SDS011;32313;48.722;9.362;2023-08-06T12:14:59;2.90;;;1.90;;
46589;SDS011;32313;48.722;9.362;2023-08-06T12:17:25;2.43;;;1.90;;
46589;SDS011;32313;48.722;9.362;2023-08-06T12:19:51;1.80;;;1.70;;
46589;SDS011;32313;48.722;9.362;2023-08-06T12:22:17;2.40;;;1.70;;
46589;SDS011;32313;48.722;9.362;2023-08-06T12:24:43;2.13;;;2.03;;
46589;SDS011;32313;48.722;9.362;2023-08-06T12:27:11;1.83;;;1.73;;
46589;SDS011;32313;48.722;9.362;2023-08-06T12:29:40;1.70;;;1.60;;
46589;SDS011;32313;48.722;9.362;2023-08-06T12:32:12;1.97;;;1.87;;
46589;SDS011;32313;48.722;9.362;2023-08-06T12:34:38;1.80;;;1.50;;
46589;SDS011;32313;48.722;9.362;2023-08-06T12:37:04;1.87;;;1.77;;
46589;SDS011;32313;48.722;9.362;2023-08-06T12:39:30;1.80;;;1.70;;
46589;SDS011;32313;48.722;9.362;2023-08-06T12:41:57;2.07;;;1.90;;
46589;SDS011;32313;48.722;9.362;2023-08-06T12:44:24;1.80;;;1.70;;
46589;SDS011;32313;48.722;9.362;2023-08-06T12:46:50;1.80;;;1.70;;
46589;SDS011;32313;48.722;9.362;2023-08-06T12:49:17;1.80;;;1.70;;
46589;SDS011;32313;48.722;9.362;2023-08-06T12:51:43;1.80;;;1.70;;
46589;SDS011;32313;48.722;9.362;2023-08-06T12:54:09;2.03;;;1.90;;
46589;SDS011;32313;48.722;9.362;2023-08-06T12:56:34;1.83;;;1.73;;
46589;SDS011;32313;48.722;9.362;2023-08-06T12:59:00;1.93;;;1.80;;
46589;SDS011;32313;48.722;9.362;2023-08-06T13:01:26;1.87;;;1.73;;
46589;SDS011;32313;48.722;9.362;2023-08-06T13:03:51;1.90;;;1.80;;
46589;SDS011;32313;48.722;9.362;2023-08-06T13:06:17;2.10;;;1.80;;
46589;SDS011;32313;48.722;9.362;2023-08-06T13:08:42;2.20;;;2.10;;
46589;SDS011;32313;48.722;9.362;2023-08-06T13:11:09;1.60;;;1.50;;
46589;SDS011;32313;48.722;9.362;2023-08-06T13:13:34;1.80;;;1.70;;
46589;SDS011;32313;48.722;9.362;2023-08-06T13:16:00;1.73;;;1.50;;
46589;SDS011;32313;48.722;9.362;2023-08-06T13:18:26;1.87;;;1.77;;
46589;SDS011;32313;48.722;9.362;2023-08-06T13:20:55;2.50;;;1.73;;
46589;SDS011;32313;48.722;9.362;2023-08-06T13:23:21;1.70;;;1.50;;
46589;SDS011;32313;48.722;9.362;2023-08-06T13:25:47;1.73;;;1.63;;
46589;SDS011;32313;48.722;9.362;2023-08-06T13:28:12;1.83;;;1.63;;
46589;SDS011;32313;48.722;9.362;2023-08-06T13:30:39;1.70;;;1.60;;
46589;SDS011;32313;48.722;9.362;2023-08-06T13:33:08;3.40;;;1.70;;
46589;SDS011;32313;48.722;9.362;2023-08-06T13:35:34;1.73;;;1.60;;
46589;SDS011;32313;48.722;9.362;2023-08-06T13:38:00;2.17;;;1.40;;
46589;SDS011;32313;48.722;9.362;2023-08-06T13:40:28;1.50;;;1.40;;
46589;SDS011;32313;48.722;9.362;2023-08-06T13:42:55;1.53;;;1.43;;
46589;SDS011;32313;48.722;9.362;2023-08-06T13:45:21;1.80;;;1.70;;
46589;SDS011;32313;48.722;9.362;2023-08-06T13:47:46;2.10;;;1.53;;
46589;SDS011;32313;48.722;9.362;2023-08-06T13:50:12;1.60;;;1.50;;
46589;SDS011;32313;48.722;9.362;2023-08-06T13:52:38;1.50;;;1.40;;
46589;SDS011;32313;48.722;9.362;2023-08-06T13:55:04;1.50;;;1.40;;
46589;SDS011;32313;48.722;9.362;2023-08-06T13:57:30;1.73;;;1.63;;
46589;SDS011;32313;48.722;9.362;2023-08-06T13:59:56;3.83;;;1.67;;
46589;SDS011;32313;48.722;9.362;2023-08-06T14:02:22;1.90;;;1.67;;
46589;SDS011;32313;48.722;9.362;2023-08-06T14:04:48;1.10;;;1.10;;
46589;SDS011;32313;48.722;9.362;2023-08-06T14:07:14;1.93;;;1.30;;
46589;SDS011;32313;48.722;9.362;2023-08-06T14:09:39;1.87;;;1.30;;
46589;SDS011;32313;48.722;9.362;2023-08-06T14:12:07;2.20;;;1.40;;
46589;SDS011;32313;48.722;9.362;2023-08-06T14:14:33;1.40;;;1.30;;
46589;SDS011;32313;48.722;9.362;2023-08-06T14:16:59;1.30;;;1.20;;
46589;SDS011;32313;48.722;9.362;2023-08-06T14:19:25;1.50;;;1.40;;
46589;SDS011;32313;48.722;9.362;2023-08-06T14:21:51;1.20;;;1.20;;
46589;SDS011;32313;48.722;9.362;2023-08-06T14:24:17;1.73;;;1.50;;
46589;SDS011;32313;48.722;9.362;2023-08-06T14:26:43;1.40;;;1.30;;
46589;SDS011;32313;48.722;9.362;2023-08-06T14:29:09;2.73;;;1.50;;
46589;SDS011;32313;48.722;9.362;2023-08-06T14:31:34;1.37;;;1.30;;
46589;SDS011;32313;48.722;9.362;2023-08-06T14:34:00;1.50;;;1.40;;
46589;SDS011;32313;48.722;9.362;2023-08-06T14:36:26;1.20;;;1.20;;
46589;SDS011;32313;48.722;9.362;2023-08-06T14:38:51;1.30;;;1.20;;
46589;SDS011;32313;48.722;9.362;2023-08-06T14:41:17;1.60;;;1.50;;
46589;SDS011;32313;48.722;9.362;2023-08-06T14:43:43;2.40;;;1.67;;
46589;SDS011;32313;48.722;9.362;2023-08-06T14:46:09;1.77;;;1.60;;
46589;SDS011;32313;48.722;9.362;2023-08-06T14:48:34;1.57;;;1.47;;
46589;SDS011;32313;48.722;9.362;2023-08-06T14:51:00;1.30;;;1.30;;